Delta Virtual Airport Information Service

Fort Lauderdale Hollywood International Airport

ICAO: KFLL Country: United States
Latitude: 26.0726 Longitude: -80.1527
Latest Arrival : JBU2465 (KBUF-KFLL) Latest Departure : DAL6857101 (KFLL-KATL)


WX CaptureLIVE
Data provided by noaa.gov | Fetched at 23:05:59

METAR : KFLL 250353Z 09017KT 8SM -RA FEW015 SCT018 OVC060 24/22 A2992 RMK AO2 PK WND 09030/0257 RAE0255B20 SLP132 P0000 T02440222 $

TAF : KFLL 250254Z 2503/2606 10012KT 5SM SHRA SCT010 BKN025 OVC050 FM251000 12012KT P6SM VCSH SCT020 BKN030 OVC050 FM251400 14015KT P6SM VCTS SCT020CB BKN040 OVC100 FM260200 16010KT P6SM VCSH SCT030 BKN050


Runway Data for KFLL
Data provided by openaviationdata.com

Runway ID Mag Var Hdg Length Elevation Surface ILS Freq ILS Id ILS Slope
09L -5 95° 8994 ft 9 ft Asphalt 110.1 ILHI 3
09R -5 95° 5272 ft 9 ft Asphalt 108.5 IFLL 0
13 -5 140° 6938 ft 9 ft Asphalt 109.35 ILID 0
27L -5 275° 5272 ft 9 ft Asphalt -- -- --
27R -5 275° 8994 ft 9 ft Asphalt 110.7 IUDL 3
31 -5 320° 6938 ft 9 ft Asphalt -- -- --

Fort Lauderdale Hollywood International Airport, United States
Use only for reference purposes



Not for navigational purposes.